Bayview, Georgia
Current Conditions -  °F | °C
As of 1:58 PM on Thursday 27 Nov 2014 (Local Time) from KLHW Reporting Station
Clear Clear  
Wind Chill: 56°   Ceiling: Unl
Heat Index: 56°   Visibility: 10mi
Dew Point: 29°   Wind: 20mph
Humidity: 36%   Direction: 290°WNW
Pressure: 30.16"   Gusts: 28mph
Location:  31.755°N, 81.7451°W
Report Text: KLHW 271858Z AUTO 29017G24KT 10SM CLR 14/M01 A3016 RMK AO2 SLP216 T01351015
Loading
Personal Weather Stations






























Interactive Weather Map New forecast layout! Learn more

10-Day Weather Forecast

Advertisements
Track Severe Weather on mobile